createdAt,value
2018-08-04T00:01:42.348Z,60.66
2018-08-04T00:04:10.388Z,62.15
2018-08-04T00:06:38.389Z,61.69
2018-08-04T00:09:09.644Z,63.02
2018-08-04T00:11:37.729Z,62.26
2018-08-04T00:14:05.777Z,63.25
2018-08-04T00:16:34.072Z,63.92
2018-08-04T00:19:02.157Z,64.78
2018-08-04T00:21:30.196Z,64.90
2018-08-04T00:23:58.360Z,64.98
2018-08-04T00:26:31.296Z,64.21
2018-08-04T00:29:00.220Z,65.25
2018-08-04T00:31:28.792Z,64.79
2018-08-04T00:33:57.013Z,65.52
2018-08-04T00:36:25.286Z,65.60
2018-08-04T00:38:53.556Z,66.41
2018-08-04T00:41:21.699Z,66.95
2018-08-04T00:43:49.992Z,66.72
2018-08-04T00:46:18.264Z,67.38
2018-08-04T00:48:46.330Z,67.31
2018-08-04T00:51:14.512Z,68.38
2018-08-04T00:53:42.585Z,68.26
2018-08-04T00:56:10.852Z,68.06
2018-08-04T00:58:39.028Z,67.92
2018-08-04T01:01:07.069Z,69.03
2018-08-04T01:03:35.367Z,69.43
2018-08-04T01:06:03.381Z,69.18
2018-08-04T01:08:31.433Z,68.85
2018-08-04T01:10:59.432Z,69.46
2018-08-04T01:13:27.442Z,69.72
2018-08-04T01:15:55.446Z,69.79
2018-08-04T01:18:23.477Z,70.84
2018-08-04T01:20:51.469Z,70.67
2018-08-04T01:23:19.465Z,71.04
2018-08-04T01:25:47.456Z,70.84
2018-08-04T01:28:15.509Z,70.65
2018-08-04T01:30:43.516Z,70.99
2018-08-04T01:33:11.518Z,70.70
2018-08-04T01:35:39.543Z,71.38
2018-08-04T01:38:08.551Z,71.05
2018-08-04T01:40:36.541Z,71.55
2018-08-04T01:43:05.667Z,72.03
2018-08-04T01:45:33.701Z,72.00
2018-08-04T01:48:01.696Z,71.89
2018-08-04T01:50:29.740Z,73.16
2018-08-04T01:52:57.737Z,72.96
2018-08-04T01:55:25.759Z,73.43
2018-08-04T01:57:53.782Z,74.46
2018-08-04T02:00:21.866Z,74.38
2018-08-04T02:02:49.889Z,74.70
2018-08-04T02:05:17.901Z,74.07
2018-08-04T02:07:45.903Z,73.86
2018-08-04T02:10:13.897Z,74.42
2018-08-04T02:12:41.901Z,75.08
2018-08-04T02:15:09.928Z,74.83
2018-08-04T02:17:37.969Z,74.41
2018-08-04T02:20:06.037Z,74.18
2018-08-04T02:22:34.148Z,75.17
2018-08-04T02:25:02.148Z,75.42
2018-08-04T02:27:30.184Z,75.44
2018-08-04T02:29:58.194Z,74.30
2018-08-04T02:32:26.193Z,73.30
2018-08-04T02:34:54.198Z,73.94
2018-08-04T02:37:22.205Z,73.25
2018-08-04T02:39:50.282Z,72.83
2018-08-04T02:42:18.317Z,73.33
2018-08-04T02:44:46.323Z,72.67
2018-08-04T02:47:14.349Z,73.42
2018-08-04T02:49:42.381Z,72.60
2018-08-04T02:52:10.396Z,73.56
2018-08-04T02:54:38.429Z,74.64
2018-08-04T02:57:06.438Z,73.15
2018-08-04T02:59:34.429Z,73.88
2018-08-04T03:02:02.437Z,72.67
2018-08-04T03:04:30.417Z,71.70
2018-08-04T03:06:58.450Z,71.66
2018-08-04T03:09:26.460Z,72.39
2018-08-04T03:11:54.459Z,72.92
2018-08-04T03:14:22.536Z,71.67
2018-08-04T03:16:50.580Z,71.67
2018-08-04T03:19:18.611Z,72.29
2018-08-04T03:21:46.675Z,72.48
2018-08-04T03:24:14.684Z,71.54
2018-08-04T03:26:42.664Z,71.31
2018-08-04T03:29:10.644Z,70.43
2018-08-04T03:31:38.681Z,70.92
2018-08-04T03:34:06.792Z,70.73
2018-08-04T03:36:35.090Z,72.18
2018-08-04T03:39:03.347Z,72.50
2018-08-04T03:41:31.399Z,73.36
2018-08-04T03:43:59.396Z,73.78
2018-08-04T03:46:27.441Z,73.82
2018-08-04T03:48:55.545Z,72.83
2018-08-04T03:51:23.569Z,72.83
2018-08-04T03:53:51.612Z,72.71
2018-08-04T03:56:19.600Z,71.60
2018-08-04T03:58:47.615Z,72.10
2018-08-04T04:01:15.592Z,71.83
2018-08-04T04:03:43.612Z,70.66
2018-08-04T04:06:11.717Z,70.94
2018-08-04T04:08:39.713Z,69.56
2018-08-04T04:11:07.719Z,70.27
2018-08-04T04:13:35.748Z,69.95
2018-08-04T04:16:03.790Z,71.05
2018-08-04T04:18:31.777Z,71.47
2018-08-04T04:20:59.778Z,70.63
2018-08-04T04:23:27.782Z,71.26
2018-08-04T04:25:55.777Z,71.77
2018-08-04T04:28:23.828Z,71.42
2018-08-04T04:30:51.849Z,71.37
2018-08-04T04:33:19.864Z,72.31
2018-08-04T04:35:47.852Z,70.98
2018-08-04T04:38:15.878Z,73.21
2018-08-04T04:40:43.925Z,73.23
2018-08-04T04:43:11.921Z,73.19
2018-08-04T04:45:39.921Z,71.99
2018-08-04T04:48:07.968Z,72.55
2018-08-04T04:50:35.980Z,72.27
2018-08-04T04:53:04.010Z,71.27
2018-08-04T04:55:32.077Z,70.28
2018-08-04T04:58:00.021Z,69.62
2018-08-04T05:00:28.096Z,69.84
2018-08-04T05:02:56.168Z,69.63
2018-08-04T05:05:24.140Z,69.16
2018-08-04T05:07:52.149Z,69.00
2018-08-04T05:10:20.141Z,69.48
2018-08-04T05:12:48.158Z,68.95
2018-08-04T05:15:16.144Z,69.46
2018-08-04T05:17:44.169Z,68.95
2018-08-04T05:20:12.241Z,68.54
2018-08-04T05:22:40.241Z,69.07
2018-08-04T05:25:08.382Z,68.35
2018-08-04T05:27:36.364Z,67.49
2018-08-04T05:30:05.640Z,67.11
2018-08-04T05:32:33.621Z,67.89
2018-08-04T05:35:01.606Z,65.70
2018-08-04T05:37:29.655Z,65.02
2018-08-04T05:39:57.629Z,64.41
2018-08-04T05:42:25.617Z,64.68
2018-08-04T05:44:53.620Z,65.65
2018-08-04T05:47:21.631Z,65.46
2018-08-04T05:49:49.620Z,64.23
2018-08-04T05:52:17.617Z,63.68
2018-08-04T05:54:45.620Z,63.66
2018-08-04T05:57:13.616Z,63.61
2018-08-04T05:59:41.641Z,63.60
2018-08-04T06:02:09.632Z,63.66
2018-08-04T06:04:37.665Z,64.15
2018-08-04T06:07:05.658Z,64.41
2018-08-04T06:09:33.688Z,65.00
2018-08-04T06:12:01.682Z,64.15
2018-08-04T06:14:29.669Z,63.86
2018-08-04T06:16:57.668Z,62.54
2018-08-04T06:19:25.688Z,61.86
2018-08-04T06:21:53.820Z,61.46
2018-08-04T06:24:21.813Z,59.77
2018-08-04T06:26:49.839Z,59.71
2018-08-04T06:29:17.861Z,57.64
2018-08-04T06:31:45.860Z,56.64
2018-08-04T06:34:13.868Z,55.98
2018-08-04T06:36:41.952Z,55.85
2018-08-04T06:39:10.053Z,53.03
2018-08-04T06:41:38.128Z,52.07
2018-08-04T06:44:07.113Z,50.75
2018-08-04T06:46:35.112Z,51.10
2018-08-04T06:49:03.165Z,50.81
2018-08-04T06:51:32.237Z,49.52
2018-08-04T06:54:00.299Z,48.86
2018-08-04T06:56:28.313Z,48.20
2018-08-04T06:58:56.344Z,46.01
2018-08-04T07:01:24.420Z,45.58
2018-08-04T07:03:52.620Z,45.99
2018-08-04T07:06:20.658Z,45.42
2018-08-04T07:08:48.658Z,45.50
2018-08-04T07:11:16.672Z,44.00
2018-08-04T07:13:44.689Z,42.90
2018-08-04T07:16:12.749Z,42.71
2018-08-04T07:18:41.881Z,42.32
2018-08-04T07:21:09.896Z,41.49
2018-08-04T07:23:37.924Z,41.46
2018-08-04T07:26:05.996Z,41.22
2018-08-04T07:28:33.990Z,39.26
2018-08-04T07:31:02.001Z,38.69
2018-08-04T07:33:30.068Z,36.44
2018-08-04T07:35:58.150Z,39.73
2018-08-04T07:38:26.236Z,39.49
2018-08-04T07:40:54.338Z,38.80
2018-08-04T07:43:22.392Z,38.95
2018-08-04T07:45:50.450Z,39.20
2018-08-04T07:48:18.485Z,38.81
2018-08-04T07:50:46.574Z,41.42
2018-08-04T07:53:14.560Z,42.71
2018-08-04T07:55:42.575Z,43.51
2018-08-04T07:58:10.637Z,43.82
2018-08-04T08:00:39.169Z,42.68
2018-08-04T08:03:07.224Z,41.92
2018-08-04T08:05:35.229Z,42.79
2018-08-04T08:08:03.296Z,40.94
2018-08-04T08:10:31.323Z,38.96
2018-08-04T08:12:59.332Z,38.50
2018-08-04T08:15:27.396Z,38.39
2018-08-04T08:17:55.584Z,36.20
2018-08-04T08:20:23.675Z,35.17
2018-08-04T08:22:51.713Z,34.69
2018-08-04T08:25:19.868Z,35.76
2018-08-04T08:27:47.853Z,36.37
2018-08-04T08:30:16.383Z,35.12
2018-08-04T08:32:44.463Z,35.43
2018-08-04T08:35:12.612Z,35.96
2018-08-04T08:37:40.980Z,34.48
2018-08-04T08:40:09.376Z,34.00
2018-08-04T08:42:37.400Z,35.01
2018-08-04T08:45:07.240Z,36.07
2018-08-04T08:47:35.361Z,36.21
2018-08-04T08:50:04.700Z,34.37
2018-08-04T08:52:32.772Z,33.56
2018-08-04T08:55:00.808Z,33.34
2018-08-04T08:57:28.821Z,33.78
2018-08-04T08:59:56.812Z,33.57
2018-08-04T09:02:24.892Z,33.58
2018-08-04T09:04:52.938Z,34.71
2018-08-04T09:07:21.004Z,34.16
2018-08-04T09:09:50.092Z,34.09
2018-08-04T09:12:18.168Z,35.24
2018-08-04T09:14:47.256Z,35.61
2018-08-04T09:17:15.368Z,34.98
2018-08-04T09:19:43.370Z,35.01
2018-08-04T09:22:11.412Z,35.33
2018-08-04T09:24:39.454Z,34.46
2018-08-04T09:27:07.553Z,35.94
2018-08-04T09:29:35.583Z,33.83
2018-08-04T09:32:03.584Z,33.67
2018-08-04T09:34:31.576Z,32.11
2018-08-04T09:36:59.568Z,31.86
2018-08-04T09:39:27.603Z,33.57
2018-08-04T09:41:55.678Z,34.35
2018-08-04T09:44:23.716Z,33.57
2018-08-04T09:46:51.716Z,33.00
2018-08-04T09:49:19.736Z,33.02
2018-08-04T09:51:48.737Z,34.38
2018-08-04T09:54:16.758Z,35.01
2018-08-04T09:56:44.744Z,34.99
2018-08-04T09:59:12.755Z,35.09
2018-08-04T10:01:40.842Z,33.62
2018-08-04T10:04:09.024Z,34.30
2018-08-04T10:06:37.105Z,36.76
2018-08-04T10:09:07.827Z,33.96
2018-08-04T10:11:35.923Z,35.45
2018-08-04T10:14:04.484Z,36.09
2018-08-04T10:16:32.479Z,32.72
2018-08-04T10:19:00.532Z,34.96
2018-08-04T10:21:28.554Z,33.70
2018-08-04T10:23:56.567Z,34.53
2018-08-04T10:26:24.572Z,35.82
2018-08-04T10:28:52.565Z,33.69
2018-08-04T10:31:20.559Z,32.64
2018-08-04T10:33:48.564Z,34.34
2018-08-04T10:36:16.637Z,33.43
2018-08-04T10:38:44.624Z,33.06
2018-08-04T10:41:12.664Z,32.46
2018-08-04T10:43:40.682Z,33.58
2018-08-04T10:46:08.702Z,36.61
2018-08-04T10:48:36.704Z,34.49
2018-08-04T10:51:04.728Z,34.26
2018-08-04T10:53:32.732Z,34.03
2018-08-04T10:56:00.752Z,33.80
2018-08-04T10:58:28.769Z,33.61
2018-08-04T11:00:56.735Z,32.18
2018-08-04T11:03:24.732Z,32.42
2018-08-04T11:05:52.785Z,32.04
2018-08-04T11:08:20.765Z,32.27
2018-08-04T11:10:48.732Z,31.86
2018-08-04T11:13:16.784Z,32.44
2018-08-04T11:15:44.795Z,34.05
2018-08-04T11:18:12.800Z,33.69
2018-08-04T11:20:40.786Z,32.89
2018-08-04T11:23:08.797Z,34.83
2018-08-04T11:25:36.792Z,35.26
2018-08-04T11:28:05.107Z,34.78
2018-08-04T11:30:33.064Z,34.00
2018-08-04T11:33:01.077Z,33.29
2018-08-04T11:35:29.112Z,33.53
2018-08-04T11:37:57.097Z,34.05
2018-08-04T11:40:25.072Z,35.53
2018-08-04T11:42:53.115Z,33.96
2018-08-04T11:45:21.117Z,34.90
2018-08-04T11:47:49.157Z,33.64
2018-08-04T11:50:17.144Z,32.53
2018-08-04T11:52:45.141Z,32.72
2018-08-04T11:55:13.121Z,33.23
2018-08-04T11:57:41.122Z,32.14
2018-08-04T12:00:09.110Z,32.04
2018-08-04T12:02:37.113Z,31.57
2018-08-04T12:05:05.254Z,31.11
2018-08-04T12:07:33.278Z,30.67
2018-08-04T12:10:01.267Z,31.29
2018-08-04T12:12:29.243Z,32.03
2018-08-04T12:14:57.400Z,31.24
2018-08-04T12:17:25.457Z,30.91
2018-08-04T12:19:53.464Z,31.37
2018-08-04T12:22:21.930Z,31.86
2018-08-04T12:24:49.958Z,31.20
2018-08-04T12:27:17.928Z,31.47
2018-08-04T12:29:45.930Z,30.96
2018-08-04T12:32:14.013Z,32.09
2018-08-04T12:34:42.121Z,30.88
2018-08-04T12:37:10.096Z,30.37
2018-08-04T12:39:38.345Z,29.82
2018-08-04T12:42:06.344Z,29.51
2018-08-04T12:44:34.396Z,31.54
2018-08-04T12:47:02.408Z,29.88
2018-08-04T12:49:30.399Z,28.93
2018-08-04T12:51:58.374Z,29.01
2018-08-04T12:54:26.434Z,29.70
2018-08-04T12:56:54.348Z,29.83
2018-08-04T12:59:22.491Z,28.85
2018-08-04T13:01:50.476Z,30.37
2018-08-04T13:04:18.471Z,29.99
2018-08-04T13:06:46.477Z,31.18
2018-08-04T13:09:14.548Z,29.41
2018-08-04T13:11:42.687Z,30.35
2018-08-04T13:14:10.676Z,32.11
2018-08-04T13:16:38.662Z,31.00
2018-08-04T13:19:06.648Z,31.16
2018-08-04T13:21:34.612Z,29.32
2018-08-04T13:24:02.659Z,29.29
2018-08-04T13:26:30.633Z,28.82
2018-08-04T13:28:58.624Z,28.76
2018-08-04T13:31:26.597Z,28.21
2018-08-04T13:33:54.636Z,29.56
2018-08-04T13:36:22.648Z,30.40
2018-08-04T13:38:50.688Z,30.95
2018-08-04T13:41:18.693Z,30.87
2018-08-04T13:43:46.703Z,31.04
2018-08-04T13:46:14.802Z,30.99
2018-08-04T13:48:42.783Z,32.36
2018-08-04T13:51:10.755Z,32.15
2018-08-04T13:53:38.762Z,32.74
2018-08-04T13:56:07.090Z,32.69
2018-08-04T13:58:35.281Z,31.65
2018-08-04T14:01:03.265Z,32.33
2018-08-04T14:03:31.272Z,32.95
2018-08-04T14:05:59.361Z,33.39
2018-08-04T14:08:27.284Z,34.23
2018-08-04T14:10:55.277Z,34.13
2018-08-04T14:13:23.273Z,33.59
2018-08-04T14:15:51.325Z,32.80
2018-08-04T14:18:19.324Z,32.79
2018-08-04T14:20:47.411Z,32.77
2018-08-04T14:23:15.388Z,31.45
2018-08-04T14:25:43.456Z,31.29
2018-08-04T14:28:11.428Z,31.86
2018-08-04T14:30:39.505Z,32.37
2018-08-04T14:33:07.552Z,33.01
2018-08-04T14:35:35.544Z,33.93
2018-08-04T14:38:03.592Z,33.75
2018-08-04T14:40:31.603Z,33.65
2018-08-04T14:43:00.668Z,34.29
2018-08-04T14:45:28.661Z,34.01
2018-08-04T14:47:56.706Z,35.41
2018-08-04T14:50:24.969Z,34.87
2018-08-04T14:52:53.283Z,34.43
2018-08-04T14:55:21.672Z,34.26
2018-08-04T14:57:49.748Z,34.43
2018-08-04T15:00:17.744Z,33.97
2018-08-04T15:02:45.730Z,35.42
2018-08-04T15:05:13.769Z,33.25
2018-08-04T15:07:41.796Z,33.77
2018-08-04T15:10:09.857Z,34.04
2018-08-04T15:12:37.838Z,34.08
2018-08-04T15:15:06.613Z,32.71
2018-08-04T15:17:34.680Z,32.88
2018-08-04T15:20:02.696Z,34.01
2018-08-04T15:22:30.783Z,34.77
2018-08-04T15:24:58.877Z,35.18
2018-08-04T15:27:26.909Z,34.78
2018-08-04T15:29:54.973Z,35.19
2018-08-04T15:32:22.940Z,35.09
2018-08-04T15:34:50.960Z,35.27
2018-08-04T15:37:19.001Z,35.07
2018-08-04T15:39:47.000Z,34.46
2018-08-04T15:42:14.992Z,35.39
2018-08-04T15:44:43.287Z,34.65
2018-08-04T15:47:11.330Z,35.33
2018-08-04T15:49:40.055Z,35.12
2018-08-04T15:52:08.120Z,34.19
2018-08-04T15:54:36.104Z,33.90
2018-08-04T15:57:04.173Z,34.78
2018-08-04T15:59:32.613Z,35.22
2018-08-04T16:02:00.697Z,33.78
2018-08-04T16:04:28.688Z,35.18
2018-08-04T16:06:56.692Z,34.03
2018-08-04T16:09:24.680Z,33.82
2018-08-04T16:11:52.680Z,34.68
2018-08-04T16:14:20.666Z,33.87
2018-08-04T16:16:48.838Z,34.66
2018-08-04T16:21:58.073Z,34.10
2018-08-04T16:24:26.219Z,33.48
2018-08-04T16:26:54.177Z,34.40
2018-08-04T16:29:22.275Z,33.94
2018-08-04T16:31:50.261Z,33.78
2018-08-04T16:34:19.825Z,33.60
2018-08-04T16:36:47.808Z,33.44
2018-08-04T16:39:15.836Z,34.96
2018-08-04T16:41:44.042Z,34.92
2018-08-04T16:44:11.913Z,35.37
2018-08-04T16:46:39.916Z,36.31
2018-08-04T16:49:07.953Z,36.55
2018-08-04T16:51:36.065Z,37.29
2018-08-04T16:54:04.064Z,37.23
2018-08-04T16:56:32.051Z,37.71
2018-08-04T16:59:00.666Z,38.48
2018-08-04T17:01:28.692Z,39.05
2018-08-04T17:03:56.673Z,40.25
2018-08-04T17:06:24.706Z,40.42
2018-08-04T17:08:53.941Z,39.89
2018-08-04T17:11:25.413Z,40.35
2018-08-04T17:13:53.902Z,40.59
2018-08-04T17:16:22.255Z,40.67
2018-08-04T17:18:50.274Z,40.21
2018-08-04T17:21:18.316Z,39.68
2018-08-04T17:23:46.440Z,39.47
2018-08-04T17:26:14.514Z,40.16
2018-08-04T17:28:42.495Z,40.29
2018-08-04T17:31:10.504Z,41.68
2018-08-04T17:33:38.513Z,41.85
2018-08-04T17:36:06.534Z,42.05
2018-08-04T17:38:34.596Z,43.21
2018-08-04T17:41:02.673Z,43.85
2018-08-04T17:43:30.833Z,45.34
2018-08-04T17:45:58.852Z,44.46
2018-08-04T17:48:26.896Z,44.29
2018-08-04T17:50:54.972Z,45.41
2018-08-04T17:53:23.041Z,46.55
2018-08-04T17:55:51.120Z,46.54
2018-08-04T17:58:19.245Z,46.86
2018-08-04T18:00:47.234Z,46.25
2018-08-04T18:03:15.333Z,47.32
2018-08-04T18:05:43.348Z,47.41
2018-08-04T18:08:11.337Z,48.40
2018-08-04T18:10:39.416Z,47.22
2018-08-04T18:13:07.550Z,48.21
2018-08-04T18:15:35.568Z,47.95
2018-08-04T18:18:03.604Z,48.46
2018-08-04T18:20:31.604Z,49.07
2018-08-04T18:22:59.696Z,48.90
2018-08-04T18:25:27.881Z,50.06
2018-08-04T18:27:55.942Z,50.97
2018-08-04T18:30:24.327Z,50.74
2018-08-04T18:32:52.369Z,51.56
2018-08-04T18:35:20.585Z,51.92
2018-08-04T18:37:48.713Z,51.10
2018-08-04T18:40:16.725Z,51.73
2018-08-04T18:42:44.774Z,51.71
2018-08-04T18:45:12.782Z,52.54
2018-08-04T18:47:40.774Z,52.54
2018-08-04T18:50:08.822Z,52.29
2018-08-04T18:52:36.799Z,52.24
2018-08-04T18:55:04.791Z,52.25
2018-08-04T18:57:32.797Z,52.55
2018-08-04T19:00:00.884Z,53.67
2018-08-04T19:02:28.885Z,54.08
2018-08-04T19:04:56.891Z,54.32
2018-08-04T19:07:24.981Z,53.39
2018-08-04T19:09:52.976Z,54.25
2018-08-04T19:12:21.027Z,54.49
2018-08-04T19:14:49.073Z,54.51
2018-08-04T19:17:17.124Z,53.40
2018-08-04T19:19:45.117Z,53.76
2018-08-04T19:22:13.154Z,53.68
2018-08-04T19:24:41.153Z,53.73
2018-08-04T19:27:09.150Z,54.84
2018-08-04T19:29:37.164Z,56.07
2018-08-04T19:32:05.189Z,56.58
2018-08-04T19:34:33.197Z,56.78
2018-08-04T19:37:01.188Z,56.61
2018-08-04T19:39:29.196Z,56.95
2018-08-04T19:41:57.216Z,57.57
2018-08-04T19:44:25.220Z,57.20
2018-08-04T19:46:53.213Z,56.71
2018-08-04T19:49:21.233Z,57.71
2018-08-04T19:51:49.278Z,57.11
2018-08-04T19:54:17.277Z,57.46
2018-08-04T19:56:45.280Z,57.07
2018-08-04T19:59:13.290Z,57.13
2018-08-04T20:01:41.280Z,56.62
2018-08-04T20:04:09.347Z,56.93
2018-08-04T20:06:37.360Z,56.97
2018-08-04T20:09:07.745Z,57.09
2018-08-04T20:11:35.833Z,57.82
2018-08-04T20:14:03.856Z,57.86
2018-08-04T20:16:32.041Z,57.76
2018-08-04T20:19:00.215Z,58.12
2018-08-04T20:21:28.324Z,57.29
2018-08-04T20:23:57.472Z,58.60
2018-08-04T20:26:25.544Z,59.56
2018-08-04T20:28:53.957Z,58.66
2018-08-04T20:31:21.932Z,59.22
2018-08-04T20:33:49.932Z,59.25
2018-08-04T20:36:17.953Z,58.77
2018-08-04T20:38:45.960Z,58.58
2018-08-04T20:41:13.963Z,58.84
2018-08-04T20:43:42.001Z,59.14
2018-08-04T20:46:10.064Z,59.13
2018-08-04T20:48:38.089Z,59.55
2018-08-04T20:51:06.089Z,59.45
2018-08-04T20:53:34.092Z,59.11
2018-08-04T20:56:02.105Z,58.86
2018-08-04T20:58:30.168Z,59.83
2018-08-04T21:01:09.680Z,60.56
2018-08-04T21:03:37.716Z,60.42
2018-08-04T21:06:05.705Z,60.26
2018-08-04T21:08:33.721Z,61.69
2018-08-04T21:11:01.756Z,61.18
2018-08-04T21:13:29.808Z,62.07
2018-08-04T21:15:57.885Z,61.85
2018-08-04T21:18:25.850Z,62.49
2018-08-04T21:20:54.036Z,62.14
2018-08-04T21:23:22.104Z,61.26
2018-08-04T21:25:50.112Z,61.76
2018-08-04T21:28:18.118Z,63.76
2018-08-04T21:30:46.100Z,63.31
2018-08-04T21:33:14.103Z,64.94
2018-08-04T21:35:42.155Z,65.39
2018-08-04T21:38:10.139Z,65.67
2018-08-04T21:40:39.264Z,65.16
2018-08-04T21:43:07.384Z,66.76
2018-08-04T21:45:35.396Z,66.71
2018-08-04T21:48:03.376Z,66.81
2018-08-04T21:50:31.413Z,67.41
2018-08-04T21:52:59.428Z,68.03
2018-08-04T21:55:28.504Z,68.67
2018-08-04T21:57:56.624Z,69.29
2018-08-04T22:00:24.672Z,68.87
2018-08-04T22:02:58.299Z,68.91
2018-08-04T22:05:26.899Z,68.30
2018-08-04T22:08:08.659Z,68.94
2018-08-04T22:10:37.253Z,68.48
2018-08-04T22:13:05.408Z,68.90
2018-08-04T22:15:34.370Z,68.46
2018-08-04T22:18:02.474Z,69.62
2018-08-04T22:20:30.936Z,69.80
2018-08-04T22:22:59.008Z,69.87
2018-08-04T22:25:29.211Z,69.92
2018-08-04T22:27:57.804Z,69.58
2018-08-04T22:30:26.304Z,70.48
2018-08-04T22:32:54.356Z,70.62
2018-08-04T22:35:22.712Z,69.63
2018-08-04T22:37:50.788Z,69.46
2018-08-04T22:40:19.812Z,70.24
2018-08-04T22:42:48.892Z,70.68
2018-08-04T22:46:05.756Z,70.88
2018-08-04T22:48:34.153Z,70.18
2018-08-04T22:51:02.190Z,69.95
2018-08-04T22:53:30.358Z,69.79
2018-08-04T22:55:58.391Z,70.12
2018-08-04T22:58:26.400Z,70.08
2018-08-04T23:00:54.481Z,69.59
2018-08-04T23:03:22.512Z,70.76
2018-08-04T23:05:50.634Z,70.32
2018-08-04T23:08:18.633Z,70.02
2018-08-04T23:10:46.772Z,69.79
2018-08-04T23:13:15.280Z,70.58
2018-08-04T23:15:43.332Z,70.09
2018-08-04T23:18:11.573Z,69.86
2018-08-04T23:20:39.826Z,69.82
2018-08-04T23:23:08.923Z,70.12
2018-08-04T23:25:36.934Z,69.94
2018-08-04T23:28:05.029Z,69.79
2018-08-04T23:30:33.024Z,70.46
2018-08-04T23:34:05.173Z,70.27
2018-08-04T23:36:33.184Z,71.24
2018-08-04T23:39:01.191Z,71.82
2018-08-04T23:41:29.189Z,71.08
2018-08-04T23:43:57.193Z,72.24
2018-08-04T23:46:25.200Z,72.12
2018-08-04T23:48:53.301Z,72.52
2018-08-04T23:51:21.321Z,71.39
2018-08-04T23:53:49.456Z,72.78
2018-08-04T23:56:17.488Z,73.47
2018-08-04T23:58:45.505Z,73.89
